^^
Meteo Knjazevac Station Historical Data
Daily Summary for April 17, 2022 Units:  Both    English   Metric
Daily Weekly Monthly Yearly Custom
  High: Low: Average:
Temperature: 77.4 °F /  25.2 °C 60.1 °F /  15.6 °C 63.8 °F /  17.7 °C
Dew Point: 67.8 °F /  19.9 °C 59.6 °F /  15.3 °C 61.7 °F /  16.5 °C
Humidity: 99% 72.4% 93%
Wind Speed: 6.2mph /  10km/h - 2.9mph /  4.7km/h
Wind Gust: 8mph /  12.9km/h - -
Wind- - SSW
Pressure: 29.99 in /  1015.5 hPa 29.96 in /  1014.4 hPa -
Precipitation: 0.00 in /  0 mm    
Historical Graphs
 
 
Tabular Data for April 17, 2022
Time Temperature Dew Point Pressure Wind Wind Speed Wind Gust Humidity Rainfall Rate (Hourly) solar Conditions
00:04 64.4 °F /  18 °C 62.6 °F /  17 °C 29.97in /  1014.8hPa NNW 2.4mph /  3.9km/h 1.8mph /  2.9km/h 94% 0.00in /  0mm 0 W/m2
00:09 64.2 °F /  17.9 °C 62.5 °F /  16.9 °C 29.97in /  1014.8hPa NNW 2.6mph /  4.2km/h 3mph /  4.8km/h 94% 0.00in /  0mm 0 W/m2
00:14 64.2 °F /  17.9 °C 62.5 °F /  16.9 °C 29.97in /  1014.8hPa NW 1.2mph /  1.9km/h 4mph /  6.4km/h 94% 0.00in /  0mm 0 W/m2
00:19 64 °F /  17.8 °C 62.3 °F /  16.8 °C 29.97in /  1014.8hPa NW 1.5mph /  2.4km/h 2mph /  3.2km/h 94% 0.00in /  0mm 0 W/m2
00:24 63.9 °F /  17.7 °C 62.2 °F /  16.8 °C 29.97in /  1014.8hPa West 2.5mph /  4km/h 2mph /  3.2km/h 94.1% 0.00in /  0mm 0 W/m2
00:29 63.8 °F /  17.7 °C 62 °F /  16.7 °C 29.97in /  1014.8hPa West 2.7mph /  4.3km/h 3mph /  4.8km/h 94% 0.00in /  0mm 0 W/m2
00:33 63.6 °F /  17.6 °C 61.8 °F /  16.6 °C 29.97in /  1014.8hPa West 1.8mph /  2.9km/h 3mph /  4.8km/h 94% 0.00in /  0mm 0 W/m2
00:39 63.4 °F /  17.4 °C 61.7 °F /  16.5 °C 29.97in /  1014.8hPa West 1.8mph /  2.9km/h 2mph /  3.2km/h 94.3% 0.00in /  0mm 0 W/m2
00:43 63.3 °F /  17.4 °C 61.7 °F /  16.5 °C 29.97in /  1014.8hPa WSW 1.1mph /  1.8km/h 2mph /  3.2km/h 94.3% 0.00in /  0mm 0 W/m2
00:49 63.1 °F /  17.3 °C 61.7 °F /  16.5 °C 29.97in /  1014.8hPa West 2.2mph /  3.5km/h 3mph /  4.8km/h 95% 0.00in /  0mm 0 W/m2
00:54 63.1 °F /  17.3 °C 61.7 °F /  16.5 °C 29.97in /  1014.8hPa WNW 2.1mph /  3.4km/h 2mph /  3.2km/h 95% 0.00in /  0mm 0 W/m2
00:59 63.2 °F /  17.3 °C 61.8 °F /  16.6 °C 29.97in /  1014.8hPa NW 1.9mph /  3.1km/h 2mph /  3.2km/h 95% 0.00in /  0mm 0 W/m2
01:04 63.1 °F /  17.3 °C 61.7 °F /  16.5 °C 29.97in /  1014.8hPa NNW 3.2mph /  5.1km/h 1.3mph /  2.1km/h 95% 0.00in /  0mm 0 W/m2
01:08 63.1 °F /  17.3 °C 61.7 °F /  16.5 °C 29.97in /  1014.8hPa NW 2.1mph /  3.4km/h 3mph /  4.8km/h 95% 0.00in /  0mm 0 W/m2
01:14 63 °F /  17.2 °C 61.6 °F /  16.4 °C 29.97in /  1014.8hPa NW 1.8mph /  2.9km/h 2mph /  3.2km/h 95% 0.00in /  0mm 0 W/m2
01:19 63 °F /  17.2 °C 61.5 °F /  16.4 °C 29.97in /  1014.8hPa WNW 1.4mph /  2.3km/h 2mph /  3.2km/h 95% 0.00in /  0mm 0 W/m2
01:24 63 °F /  17.2 °C 61.5 °F /  16.4 °C 29.97in /  1014.8hPa WSW 1.1mph /  1.8km/h 3mph /  4.8km/h 95% 0.00in /  0mm 0 W/m2
01:29 62.9 °F /  17.2 °C 61.6 °F /  16.4 °C 29.97in /  1014.8hPa ESE 0.8mph /  1.3km/h 3mph /  4.8km/h 95.7% 0.00in /  0mm 0 W/m2
01:34 62.8 °F /  17.1 °C 61.5 °F /  16.4 °C 29.97in /  1014.8hPa NE 2mph /  3.2km/h 1.1mph /  1.8km/h 95.6% 0.00in /  0mm 0 W/m2
01:39 62.8 °F /  17.1 °C 61.3 °F /  16.3 °C 29.97in /  1014.8hPa NNE 1.4mph /  2.3km/h 2mph /  3.2km/h 95.1% 0.00in /  0mm 0 W/m2
01:43 62.8 °F /  17.1 °C 61.4 °F /  16.3 °C 29.97in /  1014.8hPa North 1.5mph /  2.4km/h 0.9mph /  1.4km/h 95.3% 0.00in /  0mm 0 W/m2
01:49 62.9 °F /  17.2 °C 61.7 °F /  16.5 °C 29.97in /  1014.8hPa NE 4mph /  6.4km/h 4.9mph /  7.9km/h 96% 0.00in /  0mm 0 W/m2
01:54 63.2 °F /  17.3 °C 61.9 °F /  16.6 °C 29.97in /  1014.8hPa SE 4.9mph /  7.9km/h 8mph /  12.9km/h 95.2% 0.00in /  0mm 0 W/m2
01:59 63.4 °F /  17.4 °C 61.8 °F /  16.6 °C 29.97in /  1014.8hPa SSE 3.8mph /  6.1km/h 2.5mph /  4km/h 94.6% 0.00in /  0mm 0 W/m2
02:04 63.6 °F /  17.6 °C 61.8 °F /  16.6 °C 29.97in /  1014.8hPa ESE 5.7mph /  9.2km/h 3.6mph /  5.8km/h 94% 0.00in /  0mm 0 W/m2
02:09 63.7 °F /  17.6 °C 61.9 °F /  16.6 °C 29.97in /  1014.8hPa SE 3.1mph /  5km/h 6mph /  9.7km/h 94% 0.00in /  0mm 0 W/m2
02:14 63.7 °F /  17.6 °C 61.9 °F /  16.6 °C 29.97in /  1014.8hPa South 2.1mph /  3.4km/h 5mph /  8km/h 93.9% 0.00in /  0mm 0 W/m2
02:19 63.5 °F /  17.5 °C 61.7 °F /  16.5 °C 29.97in /  1014.8hPa WNW 2.8mph /  4.5km/h 3mph /  4.8km/h 94% 0.00in /  0mm 0 W/m2
02:24 63.6 °F /  17.6 °C 61.7 °F /  16.5 °C 29.97in /  1014.8hPa NW 3.6mph /  5.8km/h 3.1mph /  5km/h 93.8% 0.00in /  0mm 0 W/m2
02:29 63.7 °F /  17.6 °C 61.6 °F /  16.4 °C 29.97in /  1014.8hPa South 4.5mph /  7.2km/h 3.1mph /  5km/h 93% 0.00in /  0mm 0 W/m2
02:34 63.7 °F /  17.6 °C 61.6 °F /  16.4 °C 29.97in /  1014.8hPa SSE 1.7mph /  2.7km/h 6mph /  9.7km/h 93% 0.00in /  0mm 0 W/m2
02:39 63.7 °F /  17.6 °C 61.6 °F /  16.4 °C 29.97in /  1014.8hPa ESE 2.4mph /  3.9km/h 2mph /  3.2km/h 93% 0.00in /  0mm 0 W/m2
02:43 63.5 °F /  17.5 °C 61.4 °F /  16.3 °C 29.96in /  1014.4hPa WNW 3.2mph /  5.1km/h 4mph /  6.4km/h 93% 0.00in /  0mm 0 W/m2
02:49 63.5 °F /  17.5 °C 61.4 °F /  16.3 °C 29.97in /  1014.8hPa WSW 2.2mph /  3.5km/h 4mph /  6.4km/h 93% 0.00in /  0mm 0 W/m2
02:53 63.4 °F /  17.4 °C 61.5 °F /  16.4 °C 29.96in /  1014.4hPa WNW 1.4mph /  2.3km/h 2mph /  3.2km/h 93.3% 0.00in /  0mm 0 W/m2
02:59 63.2 °F /  17.3 °C 61.4 °F /  16.3 °C 29.97in /  1014.8hPa North 0.9mph /  1.4km/h 2mph /  3.2km/h 93.7% 0.00in /  0mm 0 W/m2
03:04 63 °F /  17.2 °C 61.3 °F /  16.3 °C 29.97in /  1014.8hPa NNW 2.2mph /  3.5km/h 2mph /  3.2km/h 94% 0.00in /  0mm 0 W/m2
03:09 63 °F /  17.2 °C 61.2 °F /  16.2 °C 29.97in /  1014.8hPa NW 1.3mph /  2.1km/h 3mph /  4.8km/h 94% 0.00in /  0mm 0 W/m2
03:14 62.8 °F /  17.1 °C 61 °F /  16.1 °C 29.97in /  1014.8hPa SW 3.1mph /  5km/h 2.9mph /  4.7km/h 94% 0.00in /  0mm 0 W/m2
03:19 63 °F /  17.2 °C 61.2 °F /  16.2 °C 29.97in /  1014.8hPa SSE 3.2mph /  5.1km/h 5mph /  8km/h 94.1% 0.00in /  0mm 0 W/m2
03:24 63 °F /  17.2 °C 61.2 °F /  16.2 °C 29.97in /  1014.8hPa SE 3.5mph /  5.6km/h 5mph /  8km/h 94% 0.00in /  0mm 0 W/m2
03:29 62.7 °F /  17.1 °C 60.9 °F /  16.1 °C 29.97in /  1014.8hPa ESE 1.3mph /  2.1km/h 4mph /  6.4km/h 94% 0.00in /  0mm 0 W/m2
03:34 62.6 °F /  17 °C 60.9 °F /  16.1 °C 29.97in /  1014.8hPa North 1.4mph /  2.3km/h 3mph /  4.8km/h 94.4% 0.00in /  0mm 0 W/m2
03:38 62.4 °F /  16.9 °C 60.8 °F /  16 °C 29.97in /  1014.8hPa North 1.3mph /  2.1km/h 2mph /  3.2km/h 94.1% 0.00in /  0mm 0 W/m2
03:44 62.1 °F /  16.7 °C 60.7 °F /  15.9 °C 29.97in /  1014.8hPa NNW 1.4mph /  2.3km/h 2mph /  3.2km/h 95% 0.00in /  0mm 0 W/m2
03:48 61.9 °F /  16.6 °C 60.4 °F /  15.8 °C 29.97in /  1014.8hPa WNW 2mph /  3.2km/h 2mph /  3.2km/h 95% 0.00in /  0mm 0 W/m2
03:53 61.4 °F /  16.3 °C 60 °F /  15.6 °C 29.97in /  1014.8hPa WSW 3.2mph /  5.1km/h 2.5mph /  4km/h 95% 0.00in /  0mm 0 W/m2
03:59 61.2 °F /  16.2 °C 60 °F /  15.6 °C 29.97in /  1014.8hPa West 2.4mph /  3.9km/h 3mph /  4.8km/h 95.9% 0.00in /  0mm 0 W/m2
04:04 61.1 °F /  16.2 °C 59.8 °F /  15.4 °C 29.97in /  1014.8hPa West 3.9mph /  6.3km/h 3.6mph /  5.8km/h 96% 0.00in /  0mm 0 W/m2
04:09 60.9 °F /  16.1 °C 60.1 °F /  15.6 °C 29.97in /  1014.8hPa West 3.2mph /  5.1km/h 5mph /  8km/h 97.3% 0.00in /  0mm 0 W/m2
04:14 60.8 °F /  16 °C 60.2 °F /  15.7 °C 29.97in /  1014.8hPa WNW 2.5mph /  4km/h 3mph /  4.8km/h 98% 0.00in /  0mm 0 W/m2
04:19 61 °F /  16.1 °C 60.4 °F /  15.8 °C 29.97in /  1014.8hPa NW 1.6mph /  2.6km/h 0.9mph /  1.4km/h 98% 0.00in /  0mm 0 W/m2
04:24 61 °F /  16.1 °C 60.4 °F /  15.8 °C 29.97in /  1014.8hPa NNW 1.5mph /  2.4km/h 2mph /  3.2km/h 98% 0.00in /  0mm 0 W/m2
04:29 61 °F /  16.1 °C 60.4 °F /  15.8 °C 29.97in /  1014.8hPa NNW 1.8mph /  2.9km/h 3mph /  4.8km/h 98% 0.00in /  0mm 0 W/m2
04:34 60.9 °F /  16.1 °C 60.3 °F /  15.7 °C 29.97in /  1014.8hPa NW 2.2mph /  3.5km/h 2mph /  3.2km/h 98% 0.00in /  0mm 0 W/m2
04:39 60.9 °F /  16.1 °C 60.3 °F /  15.7 °C 29.97in /  1014.8hPa NW 2mph /  3.2km/h 1.1mph /  1.8km/h 98% 0.00in /  0mm 0 W/m2
04:44 60.8 °F /  16 °C 60.2 °F /  15.7 °C 29.97in /  1014.8hPa WNW 2.3mph /  3.7km/h 2mph /  3.2km/h 98% 0.00in /  0mm 0 W/m2
04:49 60.6 °F /  15.9 °C 60.1 °F /  15.6 °C 29.97in /  1014.8hPa WSW 1.2mph /  1.9km/h 3mph /  4.8km/h 98% 0.00in /  0mm 0 W/m2
04:54 60.4 °F /  15.8 °C 59.9 °F /  15.5 °C 29.97in /  1014.8hPa NW 1.2mph /  1.9km/h 2.5mph /  4km/h 98% 0.00in /  0mm 0 W/m2
04:59 60.4 °F /  15.8 °C 59.9 °F /  15.5 °C 29.97in /  1014.8hPa NW 1.7mph /  2.7km/h 1.1mph /  1.8km/h 98.2% 0.00in /  0mm 0 W/m2
05:04 60.3 °F /  15.7 °C 59.7 °F /  15.4 °C 29.97in /  1014.8hPa WSW 2.3mph /  3.7km/h 2mph /  3.2km/h 98% 0.00in /  0mm 0 W/m2
05:09 60.1 °F /  15.6 °C 59.6 °F /  15.3 °C 29.97in /  1014.8hPa WNW 2.3mph /  3.7km/h 3mph /  4.8km/h 98.2% 0.00in /  0mm 0 W/m2
05:14 60.3 °F /  15.7 °C 60 °F /  15.6 °C 29.97in /  1014.8hPa NNW 1.6mph /  2.6km/h 3mph /  4.8km/h 99% 0.00in /  0mm 0 W/m2
05:19 60.3 °F /  15.7 °C 60 °F /  15.6 °C 29.97in /  1014.8hPa NNW 1.7mph /  2.7km/h 1.1mph /  1.8km/h 99% 0.00in /  0mm 0 W/m2
05:24 60.3 °F /  15.7 °C 59.8 °F /  15.4 °C 29.97in /  1014.8hPa West 1.8mph /  2.9km/h 2mph /  3.2km/h 98.5% 0.00in /  0mm 0 W/m2
05:29 60.1 °F /  15.6 °C 59.7 °F /  15.4 °C 29.97in /  1014.8hPa WNW 2.2mph /  3.5km/h 1.3mph /  2.1km/h 98.7% 0.00in /  0mm 1 W/m2
05:34 60.1 °F /  15.6 °C 59.8 °F /  15.4 °C 29.97in /  1014.8hPa NW 4.3mph /  6.9km/h 4mph /  6.4km/h 99% 0.00in /  0mm 2 W/m2
05:39 60.4 °F /  15.8 °C 60.1 °F /  15.6 °C 29.97in /  1014.8hPa South 3.3mph /  5.3km/h 6mph /  9.7km/h 99% 0.00in /  0mm 4 W/m2
05:44 60.6 °F /  15.9 °C 60.2 °F /  15.7 °C 29.97in /  1014.8hPa SSE 2.6mph /  4.2km/h 3mph /  4.8km/h 98.6% 0.00in /  0mm 7 W/m2
05:49 60.6 °F /  15.9 °C 60.1 °F /  15.6 °C 29.98in /  1015.1hPa ESE 2.2mph /  3.5km/h 2mph /  3.2km/h 98% 0.00in /  0mm 10 W/m2
05:54 60.4 °F /  15.8 °C 59.9 °F /  15.5 °C 29.98in /  1015.1hPa WSW 2.8mph /  4.5km/h 3mph /  4.8km/h 98% 0.00in /  0mm 14 W/m2
05:59 60.4 °F /  15.8 °C 60 °F /  15.6 °C 29.98in /  1015.1hPa West 4.1mph /  6.6km/h 4mph /  6.4km/h 98.7% 0.00in /  0mm 19 W/m2
06:04 61 °F /  16.1 °C 60.6 °F /  15.9 °C 29.98in /  1015.1hPa South 5.3mph /  8.5km/h 3.4mph /  5.5km/h 98.5% 0.00in /  0mm 23 W/m2
06:09 61.8 °F /  16.6 °C 60.8 °F /  16 °C 29.98in /  1015.1hPa SE 3.5mph /  5.6km/h 6mph /  9.7km/h 96.8% 0.00in /  0mm 28 W/m2
06:13 62.1 °F /  16.7 °C 60.9 °F /  16.1 °C 29.98in /  1015.1hPa ESE 3.3mph /  5.3km/h 3mph /  4.8km/h 96% 0.00in /  0mm 37 W/m2
06:19 62.1 °F /  16.7 °C 60.6 °F /  15.9 °C 29.98in /  1015.1hPa ESE 2.8mph /  4.5km/h 4mph /  6.4km/h 95.1% 0.00in /  0mm 47 W/m2
06:24 61.7 °F /  16.5 °C 60.2 °F /  15.7 °C 29.98in /  1015.1hPa South 2mph /  3.2km/h 3mph /  4.8km/h 95% 0.00in /  0mm 55 W/m2
06:29 61.4 °F /  16.3 °C 60.1 °F /  15.6 °C 29.98in /  1015.1hPa North 4.6mph /  7.4km/h 3.6mph /  5.8km/h 95.3% 0.00in /  0mm 67 W/m2
06:34 61.5 °F /  16.4 °C 60.4 °F /  15.8 °C 29.99in /  1015.5hPa SE 3.4mph /  5.5km/h 7mph /  11.3km/h 96% 0.00in /  0mm 76 W/m2
06:38 61.5 °F /  16.4 °C 60.4 °F /  15.8 °C 29.99in /  1015.5hPa SE 3.1mph /  5km/h 4mph /  6.4km/h 96% 0.00in /  0mm 85 W/m2
06:44 62 °F /  16.7 °C 60.8 °F /  16 °C 29.99in /  1015.5hPa East 3.8mph /  6.1km/h 4mph /  6.4km/h 96% 0.00in /  0mm 98 W/m2
06:49 62.3 °F /  16.8 °C 61 °F /  16.1 °C 29.99in /  1015.5hPa ESE 4.4mph /  7.1km/h 5mph /  8km/h 95.4% 0.00in /  0mm 109 W/m2
06:54 62.5 °F /  16.9 °C 61.1 °F /  16.2 °C 29.99in /  1015.5hPa SE 3.4mph /  5.5km/h 5mph /  8km/h 95% 0.00in /  0mm 123 W/m2
06:59 62.6 °F /  17 °C 61.1 °F /  16.2 °C 29.99in /  1015.5hPa SE 2.2mph /  3.5km/h 4mph /  6.4km/h 94.8% 0.00in /  0mm 137 W/m2
07:04 62.9 °F /  17.2 °C 61.1 °F /  16.2 °C 29.99in /  1015.5hPa SSE 3.9mph /  6.3km/h 3.1mph /  5km/h 94% 0.00in /  0mm 152 W/m2
07:09 63.3 °F /  17.4 °C 61.5 °F /  16.4 °C 29.99in /  1015.5hPa South 3.4mph /  5.5km/h 5mph /  8km/h 93.8% 0.00in /  0mm 165 W/m2
07:14 63.7 °F /  17.6 °C 61.7 °F /  16.5 °C 29.99in /  1015.5hPa South 2.4mph /  3.9km/h 4mph /  6.4km/h 93.3% 0.00in /  0mm 177 W/m2
07:19 63.8 °F /  17.7 °C 61.9 °F /  16.6 °C 29.99in /  1015.5hPa SSW 0.5mph /  0.8km/h 3mph /  4.8km/h 93.5% 0.00in /  0mm 192 W/m2
07:24 63.9 °F /  17.7 °C 62.3 °F /  16.8 °C 29.99in /  1015.5hPa SSE 1.8mph /  2.9km/h 2mph /  3.2km/h 94.6% 0.00in /  0mm 209 W/m2
07:29 63.9 °F /  17.7 °C 62.4 °F /  16.9 °C 29.99in /  1015.5hPa ENE 2.5mph /  4km/h 3mph /  4.8km/h 94.9% 0.00in /  0mm 224 W/m2
07:34 64.3 °F /  17.9 °C 62.4 °F /  16.9 °C 29.99in /  1015.5hPa East 3.7mph /  6km/h 4mph /  6.4km/h 93.4% 0.00in /  0mm 240 W/m2
07:39 64.9 °F /  18.3 °C 62.3 °F /  16.8 °C 29.99in /  1015.5hPa SE 4mph /  6.4km/h 5mph /  8km/h 91.4% 0.00in /  0mm 255 W/m2
07:44 65.4 °F /  18.6 °C 62.7 °F /  17.1 °C 29.99in /  1015.5hPa SE 3.3mph /  5.3km/h 5mph /  8km/h 90.9% 0.00in /  0mm 272 W/m2
07:49 65.8 °F /  18.8 °C 62.8 °F /  17.1 °C 29.99in /  1015.5hPa SE 3.3mph /  5.3km/h 4mph /  6.4km/h 90.1% 0.00in /  0mm 287 W/m2
07:54 66.3 °F /  19.1 °C 63.2 °F /  17.3 °C 29.99in /  1015.5hPa SSE 4.7mph /  7.6km/h 5mph /  8km/h 89.5% 0.00in /  0mm 311 W/m2
07:59 67.1 °F /  19.5 °C 63.6 °F /  17.6 °C 29.99in /  1015.5hPa SE 4.2mph /  6.8km/h 6mph /  9.7km/h 88.9% 0.00in /  0mm 325 W/m2
08:04 67.5 °F /  19.7 °C 63.8 °F /  17.7 °C 29.99in /  1015.5hPa SE 3.9mph /  6.3km/h 5mph /  8km/h 88% 0.00in /  0mm 341 W/m2
08:09 68 °F /  20 °C 63.9 °F /  17.7 °C 29.99in /  1015.5hPa SSE 3.8mph /  6.1km/h 5mph /  8km/h 87% 0.00in /  0mm 358 W/m2
08:14 68.7 °F /  20.4 °C 64.2 °F /  17.9 °C 29.99in /  1015.5hPa SSE 5.3mph /  8.5km/h 5mph /  8km/h 85.6% 0.00in /  0mm 376 W/m2
08:19 69.3 °F /  20.7 °C 64.5 °F /  18.1 °C 29.99in /  1015.5hPa SSE 6mph /  9.7km/h 4.5mph /  7.2km/h 84.6% 0.00in /  0mm 389 W/m2
08:24 69.9 °F /  21.1 °C 64.8 °F /  18.2 °C 29.99in /  1015.5hPa SSE 4.5mph /  7.2km/h 7mph /  11.3km/h 84% 0.00in /  0mm 408 W/m2
08:29 70.9 °F /  21.6 °C 65.1 °F /  18.4 °C 29.99in /  1015.5hPa SE 5.5mph /  8.9km/h 3.4mph /  5.5km/h 81.9% 0.00in /  0mm 425 W/m2
08:34 71.9 °F /  22.2 °C 65.2 °F /  18.4 °C 29.99in /  1015.5hPa SE 6.2mph /  10km/h 7mph /  11.3km/h 79.5% 0.00in /  0mm 441 W/m2
08:39 72.8 °F /  22.7 °C 65.9 °F /  18.8 °C 29.99in /  1015.5hPa ESE 6mph /  9.7km/h 7mph /  11.3km/h 78.8% 0.00in /  0mm 458 W/m2
08:44 73.5 °F /  23.1 °C 66.5 °F /  19.2 °C 29.99in /  1015.5hPa ESE 5.7mph /  9.2km/h 7mph /  11.3km/h 78.6% 0.00in /  0mm 472 W/m2
08:49 74.4 °F /  23.6 °C 66.4 °F /  19.1 °C 29.99in /  1015.5hPa ESE 4.4mph /  7.1km/h 7mph /  11.3km/h 76.2% 0.00in /  0mm 487 W/m2
08:54 75 °F /  23.9 °C 66.6 °F /  19.2 °C 29.99in /  1015.5hPa SE 3.7mph /  6km/h 5mph /  8km/h 75% 0.00in /  0mm 503 W/m2
08:59 76 °F /  24.4 °C 67.3 °F /  19.6 °C 29.99in /  1015.5hPa SSE 3.5mph /  5.6km/h 5mph /  8km/h 74.5% 0.00in /  0mm 518 W/m2
09:04 76.7 °F /  24.8 °C 67.3 °F /  19.6 °C 29.99in /  1015.5hPa SSE 3.6mph /  5.8km/h 5mph /  8km/h 72.6% 0.00in /  0mm 536 W/m2
09:09 77.4 °F /  25.2 °C 67.8 °F /  19.9 °C 29.99in /  1015.5hPa SSE 4mph /  6.4km/h 2.9mph /  4.7km/h 72.4% 0.00in /  0mm 554 W/m2
Knjazevac, Serbia
Compliments of Weather Underground - 2 mb